createdAt,value
2022-10-15T00:01:29.796Z,18.77
2022-10-15T00:03:57.988Z,18.47
2022-10-15T00:06:26.142Z,20.60
2022-10-15T00:08:54.182Z,20.47
2022-10-15T00:11:25.968Z,21.17
2022-10-15T00:13:55.375Z,24.37
2022-10-15T00:16:25.799Z,22.10
2022-10-15T00:18:56.587Z,21.53
2022-10-15T00:21:24.632Z,23.00
2022-10-15T00:23:52.811Z,24.43
2022-10-15T00:26:24.058Z,26.43
2022-10-15T00:28:53.928Z,25.73
2022-10-15T00:31:26.394Z,24.10
2022-10-15T00:33:56.151Z,25.60
2022-10-15T00:36:26.054Z,25.93
2022-10-15T00:38:54.719Z,25.80
2022-10-15T00:41:25.977Z,26.20
2022-10-15T00:43:56.090Z,26.03
2022-10-15T00:46:27.127Z,25.60
2022-10-15T00:48:59.039Z,28.17
2022-10-15T00:51:31.257Z,25.93
2022-10-15T00:54:01.097Z,26.67
2022-10-15T00:56:32.853Z,26.77
2022-10-15T00:59:02.073Z,28.67
2022-10-15T01:01:30.618Z,28.47
2022-10-15T01:03:59.981Z,28.63
2022-10-15T01:06:28.445Z,29.80
2022-10-15T01:08:56.509Z,28.53
2022-10-15T01:11:40.322Z,30.03
2022-10-15T01:14:23.869Z,29.33
2022-10-15T01:16:58.444Z,32.43
2022-10-15T01:19:42.694Z,30.10
2022-10-15T01:22:16.287Z,29.47
2022-10-15T01:25:09.655Z,34.50
2022-10-15T01:27:42.770Z,32.67
2022-10-15T01:30:24.750Z,31.10
2022-10-15T01:33:09.242Z,31.20
2022-10-15T01:35:46.482Z,31.87
2022-10-15T01:38:26.459Z,30.87
2022-10-15T01:40:58.752Z,29.97
2022-10-15T01:43:33.719Z,29.33
2022-10-15T01:46:29.030Z,33.80
2022-10-15T01:49:06.977Z,28.60
2022-10-15T01:51:37.990Z,28.40
2022-10-15T01:54:10.514Z,28.53
2022-10-15T01:56:39.274Z,29.00
2022-10-15T01:59:10.473Z,30.43
2022-10-15T02:04:22.081Z,30.13
2022-10-15T02:06:54.326Z,26.77
2022-10-15T02:09:30.726Z,31.07
2022-10-15T02:12:08.841Z,29.60
2022-10-15T02:14:48.878Z,28.77
2022-10-15T02:17:23.876Z,31.20
2022-10-15T02:19:56.158Z,29.67
2022-10-15T02:22:27.680Z,30.23
2022-10-15T02:24:58.472Z,31.00
2022-10-15T02:27:29.178Z,34.00
2022-10-15T02:29:58.622Z,32.23
2022-10-15T02:32:29.102Z,33.83
2022-10-15T02:34:57.603Z,32.07
2022-10-15T02:37:28.422Z,34.03
2022-10-15T02:39:56.780Z,33.43
2022-10-15T02:42:26.233Z,33.17
2022-10-15T02:44:54.769Z,33.80
2022-10-15T02:47:22.879Z,32.57
2022-10-15T02:49:52.351Z,34.13
2022-10-15T02:52:20.719Z,30.63
2022-10-15T02:54:49.145Z,34.80
2022-10-15T02:57:18.220Z,34.90
2022-10-15T02:59:47.164Z,35.30
2022-10-15T03:02:18.390Z,34.10
2022-10-15T03:04:48.035Z,35.73
2022-10-15T03:07:17.846Z,39.07
2022-10-15T03:09:46.159Z,39.83
2022-10-15T03:12:15.856Z,41.17
2022-10-15T03:14:43.973Z,37.97
2022-10-15T03:17:12.053Z,47.27
2022-10-15T03:19:40.871Z,44.07
2022-10-15T03:22:08.926Z,45.27
2022-10-15T03:24:46.427Z,45.63
2022-10-15T03:27:14.445Z,50.80
2022-10-15T03:29:42.485Z,47.77
2022-10-15T03:32:10.709Z,44.87
2022-10-15T03:34:39.119Z,47.77
2022-10-15T03:37:08.066Z,51.23
2022-10-15T03:39:37.110Z,50.10
2022-10-15T03:42:08.867Z,50.57
2022-10-15T03:44:41.628Z,52.13
2022-10-15T03:47:12.499Z,49.97
2022-10-15T03:49:46.733Z,53.63
2022-10-15T03:52:15.382Z,51.90
2022-10-15T03:54:44.473Z,52.27
2022-10-15T03:57:16.007Z,56.77
2022-10-15T03:59:47.997Z,50.37
2022-10-15T04:02:17.493Z,51.10
2022-10-15T04:04:45.678Z,63.20
2022-10-15T04:07:14.092Z,56.83
2022-10-15T04:09:42.416Z,52.13
2022-10-15T04:12:37.970Z,53.43
2022-10-15T04:15:09.558Z,55.63
2022-10-15T04:17:43.171Z,52.53
2022-10-15T04:20:12.376Z,54.17
2022-10-15T04:22:43.690Z,54.63
2022-10-15T04:25:11.762Z,56.77
2022-10-15T04:27:41.117Z,58.63
2022-10-15T04:30:13.740Z,60.00
2022-10-15T04:32:47.493Z,59.77
2022-10-15T04:35:15.595Z,57.90
2022-10-15T04:38:21.919Z,56.63
2022-10-15T04:41:03.510Z,54.20
2022-10-15T04:43:49.367Z,61.13
2022-10-15T04:46:17.492Z,57.23
2022-10-15T04:48:45.938Z,53.03
2022-10-15T04:51:17.257Z,57.23
2022-10-15T04:54:05.792Z,53.63
2022-10-15T04:56:34.102Z,52.13
2022-10-15T04:59:07.142Z,58.17
2022-10-15T05:01:40.575Z,55.10
2022-10-15T05:04:12.063Z,55.17
2022-10-15T05:06:41.417Z,55.17
2022-10-15T05:09:18.131Z,57.87
2022-10-15T05:11:52.528Z,57.40
2022-10-15T05:14:22.743Z,52.50
2022-10-15T05:17:06.349Z,56.43
2022-10-15T05:19:40.144Z,55.27
2022-10-15T05:22:11.691Z,60.53
2022-10-15T05:24:45.998Z,55.77
2022-10-15T05:27:26.247Z,58.40
2022-10-15T05:29:55.689Z,60.40
2022-10-15T05:32:27.579Z,64.47
2022-10-15T05:34:55.585Z,63.03
2022-10-15T05:37:24.644Z,58.43
2022-10-15T05:39:52.811Z,62.27
2022-10-15T05:42:20.833Z,64.40
2022-10-15T05:44:58.844Z,67.50
2022-10-15T05:47:27.089Z,67.93
2022-10-15T05:50:12.666Z,62.00
2022-10-15T05:52:45.230Z,62.13
2022-10-15T05:55:17.349Z,71.57
2022-10-15T05:57:45.339Z,67.70
2022-10-15T06:00:16.188Z,71.53
2022-10-15T06:02:51.656Z,69.93
2022-10-15T06:05:19.695Z,72.20
2022-10-15T06:07:47.682Z,70.50
2022-10-15T06:10:15.885Z,67.07
2022-10-15T06:12:44.351Z,69.90
2022-10-15T06:15:13.822Z,61.50
2022-10-15T06:17:41.838Z,68.77
2022-10-15T06:20:10.966Z,67.30
2022-10-15T06:22:39.005Z,63.63
2022-10-15T06:25:08.440Z,69.37
2022-10-15T06:27:36.600Z,70.27
2022-10-15T06:30:05.962Z,69.33
2022-10-15T06:32:35.582Z,69.17
2022-10-15T06:35:03.663Z,65.33
2022-10-15T06:37:31.771Z,63.63
2022-10-15T06:39:59.878Z,63.90
2022-10-15T06:42:27.868Z,67.33
2022-10-15T06:44:56.757Z,62.17
2022-10-15T06:47:25.022Z,58.30
2022-10-15T06:49:54.621Z,62.53
2022-10-15T06:52:23.769Z,54.00
2022-10-15T06:54:52.006Z,63.67
2022-10-15T06:57:25.542Z,60.37
2022-10-15T06:59:53.966Z,61.27
2022-10-15T07:02:22.266Z,58.30
2022-10-15T07:04:50.360Z,55.53
2022-10-15T07:07:23.034Z,59.97
2022-10-15T07:09:53.435Z,58.47
2022-10-15T07:12:22.403Z,59.97
2022-10-15T07:14:50.852Z,60.57
2022-10-15T07:17:18.830Z,55.33
2022-10-15T07:19:46.844Z,57.60
2022-10-15T07:22:14.842Z,49.67
2022-10-15T07:24:44.391Z,49.73
2022-10-15T07:27:19.547Z,53.40
2022-10-15T07:29:47.689Z,52.07
2022-10-15T07:32:15.681Z,52.53
2022-10-15T07:34:43.666Z,51.43
2022-10-15T07:37:11.634Z,47.23
2022-10-15T07:39:41.011Z,53.03
2022-10-15T07:44:44.036Z,52.17
2022-10-15T07:47:12.052Z,48.63
2022-10-15T07:49:40.058Z,46.43
2022-10-15T07:52:08.783Z,50.90
2022-10-15T07:54:37.392Z,49.53
2022-10-15T07:57:06.945Z,44.87
2022-10-15T07:59:36.357Z,45.37
2022-10-15T08:02:04.552Z,46.13
2022-10-15T08:04:34.580Z,48.20
2022-10-15T08:07:04.001Z,48.63
2022-10-15T08:09:33.663Z,48.27
2022-10-15T08:12:01.954Z,45.73
2022-10-15T08:14:29.954Z,47.57
2022-10-15T08:16:59.304Z,47.93
2022-10-15T08:19:27.278Z,49.83
2022-10-15T08:21:55.332Z,47.37
2022-10-15T08:24:23.309Z,48.07
2022-10-15T08:26:51.354Z,45.67
2022-10-15T08:29:19.359Z,48.33
2022-10-15T08:31:47.359Z,49.90
2022-10-15T08:34:17.039Z,46.13
2022-10-15T08:36:45.090Z,43.53
2022-10-15T08:39:13.139Z,46.13
2022-10-15T08:41:46.331Z,39.97
2022-10-15T08:44:22.858Z,45.80
2022-10-15T08:46:53.637Z,40.67
2022-10-15T08:49:34.926Z,45.00
2022-10-15T08:52:09.853Z,42.93
2022-10-15T08:54:38.139Z,40.63
2022-10-15T08:57:18.986Z,42.00
2022-10-15T08:59:53.934Z,37.83
2022-10-15T09:02:26.752Z,35.83
2022-10-15T09:05:03.502Z,35.30
2022-10-15T09:07:40.352Z,35.97
2022-10-15T09:10:17.183Z,35.03
2022-10-15T09:12:55.187Z,35.37
2022-10-15T09:15:27.870Z,33.03
2022-10-15T09:17:56.331Z,32.97
2022-10-15T09:20:33.942Z,32.40
2022-10-15T09:23:02.293Z,34.60
2022-10-15T09:25:35.997Z,30.97
2022-10-15T09:28:11.353Z,34.73
2022-10-15T09:30:46.142Z,31.97
2022-10-15T09:33:23.652Z,31.33
2022-10-15T09:35:57.663Z,29.33
2022-10-15T09:38:33.234Z,31.10
2022-10-15T09:41:16.532Z,30.43
2022-10-15T09:43:47.578Z,29.83
2022-10-15T09:46:15.603Z,28.43
2022-10-15T09:48:49.361Z,26.60
2022-10-15T09:51:25.312Z,28.67
2022-10-15T09:54:02.399Z,29.20
2022-10-15T09:56:36.983Z,29.77
2022-10-15T09:59:08.809Z,26.03
2022-10-15T10:01:37.738Z,28.50
2022-10-15T10:04:15.302Z,27.70
2022-10-15T10:06:51.704Z,31.20
2022-10-15T10:09:22.453Z,27.37
2022-10-15T10:11:52.882Z,27.60
2022-10-15T10:14:27.332Z,27.07
2022-10-15T10:17:17.131Z,26.53
2022-10-15T10:19:47.234Z,27.67
2022-10-15T10:22:18.986Z,27.50
2022-10-15T10:24:47.544Z,27.77
2022-10-15T10:27:22.465Z,27.73
2022-10-15T10:29:55.531Z,26.87
2022-10-15T10:32:28.150Z,28.17
2022-10-15T10:34:56.730Z,27.83
2022-10-15T10:37:27.403Z,27.53
2022-10-15T10:39:58.618Z,31.13
2022-10-15T10:42:32.626Z,28.50
2022-10-15T10:45:22.949Z,26.47
2022-10-15T10:47:51.163Z,26.50
2022-10-15T10:50:35.442Z,29.43
2022-10-15T10:53:23.594Z,25.07
2022-10-15T10:55:53.558Z,29.87
2022-10-15T10:58:30.064Z,23.17
2022-10-15T11:00:59.280Z,23.60
2022-10-15T11:03:33.630Z,26.90
2022-10-15T11:06:19.025Z,24.40
2022-10-15T11:08:58.948Z,27.00
2022-10-15T11:11:33.723Z,27.17
2022-10-15T11:14:17.176Z,28.33
2022-10-15T11:16:53.618Z,27.33
2022-10-15T11:22:48.407Z,24.20
2022-10-15T11:25:28.892Z,22.90
2022-10-15T11:28:17.176Z,24.23
2022-10-15T11:30:51.299Z,22.50
2022-10-15T11:33:46.081Z,22.50
2022-10-15T11:36:33.348Z,24.30
2022-10-15T11:39:23.745Z,24.37
2022-10-15T11:42:01.841Z,23.57
2022-10-15T11:44:40.553Z,20.27
2022-10-15T11:47:22.405Z,21.90
2022-10-15T11:50:02.822Z,20.50
2022-10-15T11:52:44.048Z,19.97
2022-10-15T11:55:17.098Z,20.50
2022-10-15T11:57:49.867Z,20.63
2022-10-15T12:00:31.011Z,18.97
2022-10-15T12:03:03.630Z,20.43
2022-10-15T12:05:36.823Z,19.43
2022-10-15T12:08:05.978Z,19.97
2022-10-15T12:10:53.377Z,16.40
2022-10-15T12:13:29.589Z,17.50
2022-10-15T12:16:07.871Z,15.27
2022-10-15T12:18:41.770Z,15.37
2022-10-15T12:21:32.066Z,15.23
2022-10-15T12:24:00.150Z,15.50
2022-10-15T12:26:32.122Z,16.43
2022-10-15T12:29:05.197Z,14.90
2022-10-15T12:31:49.197Z,16.07
2022-10-15T12:34:42.312Z,18.80
2022-10-15T12:37:18.522Z,18.93
2022-10-15T12:39:52.144Z,18.83
2022-10-15T12:42:26.924Z,21.83
2022-10-15T12:44:58.498Z,18.47
2022-10-15T12:47:48.854Z,19.07
2022-10-15T12:50:22.250Z,20.10
2022-10-15T12:53:01.867Z,18.63
2022-10-15T12:55:33.870Z,21.17
2022-10-15T12:58:07.674Z,19.67
2022-10-15T13:00:46.124Z,18.90
2022-10-15T13:03:35.406Z,21.70
2022-10-15T13:06:25.932Z,22.37
2022-10-15T13:08:56.733Z,20.43
2022-10-15T13:11:28.123Z,21.23
2022-10-15T13:14:00.454Z,19.90
2022-10-15T13:16:30.594Z,23.10
2022-10-15T13:19:00.282Z,22.47
2022-10-15T13:21:48.702Z,22.80
2022-10-15T13:24:20.124Z,20.57
2022-10-15T13:26:48.383Z,23.27
2022-10-15T13:29:20.378Z,22.63
2022-10-15T13:31:50.353Z,23.27
2022-10-15T13:34:28.744Z,24.97
2022-10-15T13:36:58.786Z,24.53
2022-10-15T13:39:31.991Z,23.30
2022-10-15T13:42:11.350Z,25.67
2022-10-15T13:44:39.357Z,26.20
2022-10-15T13:47:25.791Z,24.67
2022-10-15T13:50:22.261Z,26.63
2022-10-15T13:52:55.081Z,27.13
2022-10-15T13:55:25.576Z,25.27
2022-10-15T13:57:58.905Z,27.23
2022-10-15T14:00:30.060Z,25.97
2022-10-15T14:03:10.541Z,25.40
2022-10-15T14:05:38.542Z,28.57
2022-10-15T14:08:06.722Z,24.80
2022-10-15T14:10:34.742Z,24.67
2022-10-15T14:13:02.774Z,24.67
2022-10-15T14:15:44.931Z,22.77
2022-10-15T14:18:16.246Z,21.97
2022-10-15T14:20:46.084Z,25.47
2022-10-15T14:23:18.560Z,26.30
2022-10-15T14:25:46.643Z,25.83
2022-10-15T14:28:21.799Z,25.90
2022-10-15T14:30:49.987Z,23.97
2022-10-15T14:33:34.078Z,25.63
2022-10-15T14:36:06.425Z,26.53
2022-10-15T14:38:34.703Z,24.20
2022-10-15T14:41:07.601Z,25.38
2022-10-15T14:43:37.617Z,22.60
2022-10-15T14:46:08.061Z,24.23
2022-10-15T14:48:40.567Z,22.40
2022-10-15T14:51:15.623Z,23.77
2022-10-15T14:53:47.471Z,24.13
2022-10-15T14:56:19.961Z,24.42
2022-10-15T14:58:52.045Z,23.83
2022-10-15T15:01:21.624Z,22.77
2022-10-15T15:03:55.418Z,22.80
2022-10-15T15:06:23.505Z,21.53
2022-10-15T15:08:51.537Z,21.57
2022-10-15T15:11:21.978Z,19.53
2022-10-15T15:13:51.449Z,20.07
2022-10-15T15:16:20.372Z,18.70
2022-10-15T15:18:49.801Z,18.87
2022-10-15T15:21:21.097Z,19.93
2022-10-15T15:23:50.074Z,18.47
2022-10-15T15:26:18.077Z,19.47
2022-10-15T15:28:46.149Z,22.27
2022-10-15T15:31:18.304Z,20.13
2022-10-15T15:33:46.901Z,20.93
2022-10-15T15:36:23.320Z,22.77
2022-10-15T15:38:52.055Z,23.63
2022-10-15T15:41:22.078Z,22.30
2022-10-15T15:43:50.938Z,24.10
2022-10-15T15:46:19.549Z,23.87
2022-10-15T15:48:47.592Z,23.47
2022-10-15T15:51:21.792Z,25.03
2022-10-15T15:53:49.935Z,24.07
2022-10-15T15:56:17.946Z,24.43
2022-10-15T15:58:46.582Z,23.10
2022-10-15T16:01:14.651Z,25.00
2022-10-15T16:03:42.661Z,26.67
2022-10-15T16:06:10.740Z,27.67
2022-10-15T16:08:40.103Z,23.87
2022-10-15T16:11:08.234Z,25.87
2022-10-15T16:13:36.514Z,27.70
2022-10-15T16:16:04.619Z,24.30
2022-10-15T16:18:32.608Z,26.40
2022-10-15T16:21:00.767Z,24.03
2022-10-15T16:23:28.754Z,22.17
2022-10-15T16:25:58.422Z,24.67
2022-10-15T16:28:28.079Z,23.27
2022-10-15T16:30:56.597Z,26.13
2022-10-15T16:33:26.211Z,22.60
2022-10-15T16:35:56.297Z,25.97
2022-10-15T16:43:09.910Z,24.80
2022-10-15T16:45:38.023Z,24.50
2022-10-15T16:48:07.005Z,21.00
2022-10-15T16:50:35.025Z,21.57
2022-10-15T16:53:03.809Z,22.30
2022-10-15T16:55:32.287Z,21.63
2022-10-15T16:58:00.309Z,22.97
2022-10-15T17:00:29.786Z,21.40
2022-10-15T17:03:02.639Z,21.13
2022-10-15T17:05:32.526Z,22.83
2022-10-15T17:08:00.500Z,18.80
2022-10-15T17:10:28.498Z,21.10
2022-10-15T17:12:56.543Z,20.57
2022-10-15T17:15:25.402Z,18.93
2022-10-15T17:17:54.793Z,21.03
2022-10-15T17:20:22.803Z,17.87
2022-10-15T17:22:50.877Z,17.80
2022-10-15T17:25:19.722Z,18.70
2022-10-15T17:27:47.694Z,17.80
2022-10-15T17:30:15.770Z,16.33
2022-10-15T17:32:43.826Z,15.60
2022-10-15T17:35:13.142Z,17.50
2022-10-15T17:37:45.377Z,15.87
2022-10-15T17:40:20.354Z,14.63
2022-10-15T17:42:48.544Z,13.63
2022-10-15T17:45:17.211Z,14.03
2022-10-15T17:47:45.175Z,12.23
2022-10-15T17:50:14.587Z,13.83
2022-10-15T17:52:42.951Z,13.30
2022-10-15T17:55:11.145Z,13.43
2022-10-15T17:57:39.189Z,11.53
2022-10-15T18:00:08.401Z,13.03
2022-10-15T18:02:40.368Z,13.03
2022-10-15T18:05:08.749Z,12.20
2022-10-15T18:07:39.793Z,10.43
2022-10-15T18:10:09.230Z,11.30
2022-10-15T18:12:37.414Z,11.40
2022-10-15T18:15:06.036Z,9.30
2022-10-15T18:17:34.102Z,11.43
2022-10-15T18:20:02.778Z,9.23
2022-10-15T18:22:31.166Z,9.60
2022-10-15T18:25:00.513Z,9.57
2022-10-15T18:27:28.781Z,9.83
2022-10-15T18:29:56.878Z,9.10
2022-10-15T18:32:24.907Z,9.37
2022-10-15T18:34:52.878Z,9.40
2022-10-15T18:37:20.986Z,9.73
2022-10-15T18:39:48.990Z,8.93
2022-10-15T18:42:18.339Z,9.43
2022-10-15T18:44:46.499Z,8.10
2022-10-15T18:47:14.495Z,9.60
2022-10-15T18:49:44.170Z,9.20
2022-10-15T18:52:21.563Z,8.97
2022-10-15T18:55:00.223Z,8.50
2022-10-15T18:57:31.621Z,9.10
2022-10-15T18:59:59.571Z,8.27
2022-10-15T19:02:28.049Z,8.93
2022-10-15T19:04:56.171Z,8.57
2022-10-15T19:07:24.303Z,8.33
2022-10-15T19:09:52.314Z,8.27
2022-10-15T19:12:25.751Z,8.33
2022-10-15T19:14:55.206Z,7.77
2022-10-15T19:17:23.203Z,9.10
2022-10-15T19:19:51.217Z,8.70
2022-10-15T19:22:19.554Z,9.13
2022-10-15T19:24:47.553Z,9.17
2022-10-15T19:27:15.546Z,10.00
2022-10-15T19:29:43.537Z,9.03
2022-10-15T19:32:12.858Z,10.13
2022-10-15T19:34:40.867Z,9.83
2022-10-15T19:37:08.886Z,10.33
2022-10-15T19:39:48.838Z,10.40
2022-10-15T19:42:17.163Z,10.47
2022-10-15T19:44:45.338Z,10.40
2022-10-15T19:47:20.355Z,10.43
2022-10-15T19:49:50.481Z,10.70
2022-10-15T19:52:18.557Z,10.67
2022-10-15T19:54:49.613Z,10.27
2022-10-15T19:57:17.623Z,10.37
2022-10-15T19:59:45.633Z,10.50
2022-10-15T20:02:13.927Z,10.50
2022-10-15T20:04:43.258Z,10.60
2022-10-15T20:07:11.503Z,11.07
2022-10-15T20:09:39.577Z,9.27
2022-10-15T20:12:07.633Z,10.07
2022-10-15T20:14:35.882Z,9.93
2022-10-15T20:17:04.865Z,9.90
2022-10-15T20:19:32.946Z,10.53
2022-10-15T20:22:02.419Z,10.13
2022-10-15T20:24:30.515Z,10.70
2022-10-15T20:26:58.529Z,9.90
2022-10-15T20:29:26.650Z,9.87
2022-10-15T20:32:02.028Z,10.37
2022-10-15T20:34:39.181Z,9.97
2022-10-15T20:37:08.497Z,10.10
2022-10-15T20:39:36.533Z,9.80
2022-10-15T20:42:04.650Z,10.20
2022-10-15T20:44:32.637Z,10.57
2022-10-15T20:47:05.283Z,11.47
2022-10-15T20:49:36.919Z,10.60
2022-10-15T20:52:05.845Z,10.10
2022-10-15T20:54:35.498Z,11.13
2022-10-15T20:57:03.944Z,10.40
2022-10-15T20:59:31.919Z,10.43
2022-10-15T21:01:59.925Z,10.50
2022-10-15T21:04:27.938Z,11.30
2022-10-15T21:06:55.915Z,10.60
2022-10-15T21:09:24.141Z,10.83
2022-10-15T21:11:53.501Z,11.13
2022-10-15T21:14:21.588Z,10.60
2022-10-15T21:16:49.585Z,10.30
2022-10-15T21:19:17.626Z,10.03
2022-10-15T21:21:45.599Z,9.83
2022-10-15T21:24:14.742Z,10.33
2022-10-15T21:26:42.730Z,9.53
2022-10-15T21:29:16.264Z,10.60
2022-10-15T21:31:44.349Z,8.83
2022-10-15T21:34:12.365Z,8.40
2022-10-15T21:36:41.637Z,8.90
2022-10-15T21:39:10.746Z,10.63
2022-10-15T21:41:39.979Z,7.73
2022-10-15T21:44:09.116Z,7.63
2022-10-15T21:46:41.146Z,8.17
2022-10-15T21:49:09.345Z,9.83
2022-10-15T21:51:38.376Z,9.23
2022-10-15T21:54:08.060Z,8.43
2022-10-15T21:56:36.289Z,8.43
2022-10-15T21:59:04.677Z,10.13
2022-10-15T22:01:34.748Z,8.13
2022-10-15T22:04:06.639Z,8.63
2022-10-15T22:06:35.007Z,8.33
2022-10-15T22:09:04.185Z,8.57
2022-10-15T22:11:34.314Z,10.60
2022-10-15T22:14:04.330Z,8.53
2022-10-15T22:16:35.589Z,9.63
2022-10-15T22:19:05.433Z,9.53
2022-10-15T22:21:37.802Z,9.50
2022-10-15T22:24:09.281Z,12.37
2022-10-15T22:26:39.945Z,12.53
2022-10-15T22:29:09.575Z,10.73
2022-10-15T22:31:37.665Z,9.83
2022-10-15T22:34:07.013Z,9.43
2022-10-15T22:36:35.396Z,11.17
2022-10-15T22:39:05.886Z,12.20
2022-10-15T22:41:35.865Z,11.47
2022-10-15T22:44:04.522Z,10.33
2022-10-15T22:46:34.562Z,12.03
2022-10-15T22:49:02.815Z,13.67
2022-10-15T22:51:32.410Z,11.50
2022-10-15T22:54:01.330Z,11.47
2022-10-15T22:56:30.135Z,12.10
2022-10-15T22:58:59.833Z,13.30
2022-10-15T23:01:29.246Z,11.60
2022-10-15T23:03:58.999Z,11.00
2022-10-15T23:06:27.327Z,11.23
2022-10-15T23:08:58.573Z,11.87
2022-10-15T23:11:28.888Z,11.50
2022-10-15T23:13:58.409Z,11.33
2022-10-15T23:16:28.168Z,11.13
2022-10-15T23:18:57.834Z,10.37
2022-10-15T23:21:29.704Z,11.17
2022-10-15T23:23:59.505Z,12.30
2022-10-15T23:29:02.513Z,10.93
2022-10-15T23:31:32.340Z,11.17
2022-10-15T23:34:00.833Z,13.20
2022-10-15T23:36:30.161Z,11.90
2022-10-15T23:39:01.849Z,11.80
2022-10-15T23:41:30.557Z,12.30
2022-10-15T23:43:58.598Z,13.27
2022-10-15T23:46:27.235Z,11.47
2022-10-15T23:48:55.246Z,11.43
2022-10-15T23:51:25.137Z,12.33
2022-10-15T23:53:53.969Z,11.97
2022-10-15T23:56:24.094Z,11.80
2022-10-15T23:58:55.757Z,11.83
